createdAt,value
2019-02-06T05:59:21.695Z,1.22
2019-02-06T06:00:21.601Z,1.22
2019-02-06T06:01:21.582Z,1.24
2019-02-06T06:02:21.568Z,1.25
2019-02-06T06:03:21.552Z,1.29
2019-02-06T06:04:21.538Z,1.29
2019-02-06T11:21:03.351Z,6.81
2019-02-06T11:21:36.306Z,6.89
2019-02-06T11:22:36.342Z,6.87
2019-02-06T11:23:36.542Z,6.95
2019-02-06T13:40:56.585Z,11.01
2019-02-06T13:41:29.544Z,11.06
2019-02-06T13:42:29.518Z,11.06
2019-02-06T13:43:29.507Z,11.13
2019-02-06T13:44:29.493Z,11.06
2019-02-06T13:45:29.495Z,11.11
2019-02-06T13:46:29.494Z,11.16
2019-02-06T13:47:29.461Z,11.13
2019-02-06T13:48:29.450Z,11.06
2019-02-06T13:49:29.443Z,11.11
2019-02-06T13:50:29.437Z,11.20
2019-02-06T13:51:29.442Z,11.01
2019-02-06T13:52:29.409Z,11.17
2019-02-06T13:53:29.403Z,11.19
2019-02-06T15:37:03.430Z,9.43
2019-02-06T15:38:01.453Z,9.45
2019-02-06T15:39:01.747Z,9.45
2019-02-06T15:40:01.539Z,9.38
2019-02-06T15:41:01.608Z,9.31
2019-02-06T15:42:01.408Z,9.31
2019-02-06T15:43:01.402Z,9.27
2019-02-06T15:44:01.387Z,9.34
2019-02-06T15:45:01.378Z,9.28
2019-02-06T15:46:01.370Z,9.28
2019-02-06T15:47:01.491Z,9.24
2019-02-06T15:48:01.348Z,9.30
2019-02-06T15:49:01.333Z,9.27
2019-02-06T15:50:01.867Z,9.15
2019-02-06T15:51:03.489Z,9.24
2019-02-06T15:52:01.441Z,9.12
2019-02-06T15:53:01.298Z,9.20
2019-02-06T15:54:01.292Z,9.12
2019-02-06T15:55:01.267Z,9.10
2019-02-06T15:56:01.258Z,9.15
2019-02-06T15:57:01.271Z,9.09
2019-02-06T15:58:01.230Z,9.01
2019-02-06T15:59:01.254Z,9.01
2019-02-06T16:00:01.211Z,8.94
2019-02-06T16:01:01.198Z,9.02
2019-02-06T16:02:01.185Z,8.91
2019-02-06T16:03:01.197Z,8.93
2019-02-06T16:04:01.168Z,8.88
2019-02-06T16:05:01.321Z,8.94
2019-02-06T16:06:01.146Z,8.93
